createdAt,value
2023-04-04T00:02:19.023Z,69.78
2023-04-04T00:07:21.419Z,70.28
2023-04-04T00:12:26.691Z,70.40
2023-04-04T00:17:30.423Z,70.92
2023-04-04T00:22:32.169Z,71.22
2023-04-04T00:27:33.865Z,71.42
2023-04-04T00:32:35.793Z,71.25
2023-04-04T00:37:38.137Z,71.57
2023-04-04T00:42:40.009Z,71.86
2023-04-04T00:47:43.599Z,71.97
2023-04-04T00:52:45.486Z,71.91
2023-04-04T00:57:48.052Z,72.15
2023-04-04T01:02:50.700Z,72.02
2023-04-04T01:07:52.772Z,72.25
2023-04-04T01:12:55.482Z,72.23
2023-04-04T01:18:01.895Z,72.11
2023-04-04T01:23:06.684Z,72.18
2023-04-04T01:28:09.751Z,72.66
2023-04-04T01:33:22.616Z,72.72
2023-04-04T01:38:35.484Z,72.83
2023-04-04T01:43:37.567Z,73.51
2023-04-04T01:48:39.850Z,73.67
2023-04-04T01:53:42.919Z,73.94
2023-04-04T01:58:44.886Z,73.94
2023-04-04T02:03:47.575Z,73.93
2023-04-04T02:08:49.382Z,74.20
2023-04-04T02:13:51.539Z,74.43
2023-04-04T02:18:54.026Z,74.39
2023-04-04T02:23:55.744Z,74.57
2023-04-04T02:28:57.419Z,74.89
2023-04-04T02:33:59.211Z,74.94
2023-04-04T02:39:01.159Z,75.18
2023-04-04T02:44:05.361Z,74.89
2023-04-04T02:49:07.413Z,75.51
2023-04-04T02:54:10.177Z,75.66
2023-04-04T02:59:15.130Z,75.61
2023-04-04T03:04:19.428Z,75.94
2023-04-04T03:09:21.199Z,75.96
2023-04-04T03:14:23.038Z,75.92
2023-04-04T03:19:25.009Z,76.00
2023-04-04T03:24:28.485Z,76.42
2023-04-04T03:29:30.130Z,76.69
2023-04-04T03:34:32.976Z,76.77
2023-04-04T03:39:35.376Z,76.63
2023-04-04T03:44:42.628Z,77.33
2023-04-04T03:49:51.537Z,77.45
2023-04-04T03:54:53.429Z,77.64
2023-04-04T03:59:55.091Z,77.73
2023-04-04T04:04:57.486Z,77.96
2023-04-04T04:09:59.553Z,78.04
2023-04-04T04:15:01.927Z,78.02
2023-04-04T04:20:10.332Z,77.75
2023-04-04T04:25:17.818Z,78.00
2023-04-04T04:30:26.923Z,78.15
2023-04-04T04:35:28.984Z,78.22
2023-04-04T04:40:31.801Z,78.21
2023-04-04T04:45:50.802Z,78.13
2023-04-04T04:50:55.042Z,77.59
2023-04-04T04:56:06.076Z,76.88
2023-04-04T05:01:09.429Z,76.42
2023-04-04T05:06:13.858Z,75.60
2023-04-04T05:11:15.951Z,74.70
2023-04-04T05:16:17.977Z,74.34
2023-04-04T05:21:20.877Z,73.46
2023-04-04T05:26:25.043Z,72.92
2023-04-04T05:31:29.000Z,72.30
2023-04-04T05:36:31.522Z,71.13
2023-04-04T05:41:37.636Z,70.77
2023-04-04T05:46:45.701Z,69.95
2023-04-04T05:51:47.646Z,69.35
2023-04-04T05:56:50.930Z,69.02
2023-04-04T06:02:01.367Z,67.90
2023-04-04T06:07:04.078Z,66.81
2023-04-04T06:12:30.639Z,66.70
2023-04-04T06:17:33.112Z,66.40
2023-04-04T06:22:35.498Z,66.22
2023-04-04T06:27:38.096Z,66.14
2023-04-04T06:32:42.471Z,65.57
2023-04-04T06:37:48.326Z,65.88
2023-04-04T06:42:57.914Z,65.70
2023-04-04T06:48:03.656Z,64.92
2023-04-04T06:53:08.623Z,63.89
2023-04-04T06:58:10.507Z,62.38
2023-04-04T07:03:12.276Z,62.40
2023-04-04T07:08:14.410Z,61.08
2023-04-04T07:13:16.768Z,61.38
2023-04-04T07:18:18.532Z,60.61
2023-04-04T07:23:20.257Z,59.32
2023-04-04T07:28:22.071Z,60.21
2023-04-04T07:33:23.776Z,59.33
2023-04-04T07:38:25.582Z,59.75
2023-04-04T07:43:27.361Z,58.48
2023-04-04T07:48:29.051Z,58.31
2023-04-04T07:53:49.458Z,56.82
2023-04-04T07:58:51.171Z,55.32
2023-04-04T08:03:53.760Z,55.14
2023-04-04T08:08:55.545Z,54.41
2023-04-04T08:13:57.188Z,53.24
2023-04-04T08:19:00.058Z,51.29
2023-04-04T08:24:02.001Z,51.16
2023-04-04T08:29:03.911Z,50.58
2023-04-04T08:34:07.803Z,49.66
2023-04-04T08:39:09.717Z,48.56
2023-04-04T08:44:20.435Z,47.59
2023-04-04T08:49:24.044Z,47.84
2023-04-04T08:54:26.575Z,46.07
2023-04-04T08:59:28.855Z,44.90
2023-04-04T09:04:31.853Z,45.96
2023-04-04T09:09:34.292Z,46.73
2023-04-04T09:14:39.220Z,46.68
2023-04-04T09:19:40.889Z,46.63
2023-04-04T09:24:43.803Z,46.22
2023-04-04T09:29:45.716Z,46.53
2023-04-04T09:34:47.978Z,46.03
2023-04-04T09:39:49.804Z,46.10
2023-04-04T09:44:55.001Z,46.65
2023-04-04T09:50:01.373Z,45.91
2023-04-04T09:55:05.304Z,46.47
2023-04-04T10:00:09.263Z,46.71
2023-04-04T10:05:11.395Z,47.06
2023-04-04T10:10:13.962Z,47.07
2023-04-04T10:15:16.478Z,47.69
2023-04-04T10:20:19.126Z,48.16
2023-04-04T10:25:20.784Z,45.53
2023-04-04T10:30:22.495Z,45.26
2023-04-04T10:35:25.513Z,45.95
2023-04-04T10:40:33.246Z,45.91
2023-04-04T10:45:38.725Z,44.42
2023-04-04T10:50:41.896Z,43.92
2023-04-04T10:55:46.316Z,44.14
2023-04-04T11:00:54.951Z,44.05
2023-04-04T11:06:01.782Z,42.79
2023-04-04T11:11:09.637Z,42.40
2023-04-04T11:16:19.296Z,42.19
2023-04-04T11:21:24.881Z,43.32
2023-04-04T11:26:26.600Z,42.92
2023-04-04T11:31:34.781Z,43.34
2023-04-04T11:36:44.361Z,42.72
2023-04-04T11:41:53.423Z,41.63
2023-04-04T11:46:57.235Z,42.74
2023-04-04T11:51:58.962Z,44.59
2023-04-04T11:57:01.610Z,44.80
2023-04-04T12:02:09.110Z,43.57
2023-04-04T12:07:13.776Z,46.13
2023-04-04T12:12:16.472Z,46.55
2023-04-04T12:17:18.322Z,44.99
2023-04-04T12:22:20.995Z,45.13
2023-04-04T12:27:22.868Z,45.74
2023-04-04T12:32:24.778Z,44.97
2023-04-04T12:37:29.584Z,42.75
2023-04-04T12:42:32.005Z,43.19
2023-04-04T12:47:34.043Z,41.84
2023-04-04T12:52:39.669Z,42.33
2023-04-04T12:57:41.913Z,42.17
2023-04-04T13:02:46.630Z,42.22
2023-04-04T13:07:48.624Z,42.67
2023-04-04T13:13:01.090Z,43.00
2023-04-04T13:18:18.124Z,43.13
2023-04-04T13:23:21.514Z,43.71
2023-04-04T13:28:23.190Z,43.66
2023-04-04T13:33:24.889Z,43.64
2023-04-04T13:38:27.966Z,43.65
2023-04-04T13:43:29.689Z,43.15
2023-04-04T13:48:31.539Z,43.69
2023-04-04T13:53:33.237Z,44.08
2023-04-04T13:58:35.073Z,43.58
2023-04-04T14:03:37.324Z,44.16
2023-04-04T14:08:39.694Z,44.34
2023-04-04T14:13:41.838Z,45.47
2023-04-04T14:18:44.692Z,44.64
2023-04-04T14:23:47.199Z,43.18
2023-04-04T14:28:51.863Z,43.64
2023-04-04T14:33:54.557Z,44.23
2023-04-04T14:38:56.830Z,44.47
2023-04-04T14:43:59.294Z,42.74
2023-04-04T14:49:03.062Z,42.84
2023-04-04T14:54:05.186Z,43.72
2023-04-04T14:59:08.187Z,44.15
2023-04-04T15:04:11.479Z,45.43
2023-04-04T15:09:13.321Z,45.30
2023-04-04T15:14:14.967Z,44.78
2023-04-04T15:19:16.687Z,46.11
2023-04-04T15:24:18.454Z,46.10
2023-04-04T15:29:20.374Z,46.13
2023-04-04T15:34:22.035Z,46.42
2023-04-04T15:39:23.789Z,46.49
2023-04-04T15:44:25.758Z,46.39
2023-04-04T15:49:28.313Z,47.00
2023-04-04T15:54:31.985Z,47.22
2023-04-04T15:59:34.412Z,47.48
2023-04-04T16:04:36.061Z,47.76
2023-04-04T16:09:37.723Z,47.61
2023-04-04T16:14:39.347Z,47.44
2023-04-04T16:19:41.374Z,47.36
2023-04-04T16:24:43.026Z,47.06
2023-04-04T16:29:44.787Z,47.38
2023-04-04T16:34:46.796Z,48.43
2023-04-04T16:39:48.998Z,49.00
2023-04-04T16:44:50.861Z,48.99
2023-04-04T16:49:52.557Z,48.74
2023-04-04T16:54:55.000Z,48.34
2023-04-04T16:59:57.265Z,48.11
2023-04-04T17:04:58.978Z,49.11
2023-04-04T17:10:01.128Z,49.40
2023-04-04T17:15:04.703Z,49.73
2023-04-04T17:20:07.378Z,50.23
2023-04-04T17:25:09.491Z,49.68
2023-04-04T17:30:12.854Z,50.19
2023-04-04T17:35:17.674Z,50.24
2023-04-04T17:40:19.644Z,50.85
2023-04-04T17:45:21.389Z,51.17
2023-04-04T17:50:23.088Z,52.09
2023-04-04T17:55:24.951Z,52.80
2023-04-04T18:00:27.253Z,53.41
2023-04-04T18:05:29.209Z,53.96
2023-04-04T18:10:31.660Z,54.65
2023-04-04T18:15:33.741Z,55.06
2023-04-04T18:20:36.555Z,55.57
2023-04-04T18:25:38.390Z,56.28
2023-04-04T18:30:40.266Z,57.25
2023-04-04T18:35:42.036Z,57.82
2023-04-04T18:40:46.497Z,58.29
2023-04-04T18:45:48.612Z,58.88
2023-04-04T18:50:51.585Z,59.46
2023-04-04T18:55:53.542Z,59.98
2023-04-04T19:00:58.580Z,60.68
2023-04-04T19:06:01.597Z,61.32
2023-04-04T19:11:03.308Z,61.90
2023-04-04T19:16:05.651Z,62.06
2023-04-04T19:21:08.826Z,62.34
2023-04-04T19:26:11.843Z,62.25
2023-04-04T19:31:21.617Z,62.19
2023-04-04T19:36:23.933Z,62.56
2023-04-04T19:41:39.961Z,62.57
2023-04-04T19:46:41.658Z,62.82
2023-04-04T19:51:48.933Z,62.96
2023-04-04T19:56:50.810Z,63.47
2023-04-04T20:02:00.251Z,63.96
2023-04-04T20:07:02.696Z,64.01
2023-04-04T20:12:07.237Z,64.68
2023-04-04T20:17:09.657Z,64.93
2023-04-04T20:22:11.617Z,65.60
2023-04-04T20:27:23.662Z,66.36
2023-04-04T20:32:25.298Z,66.74
2023-04-04T20:37:28.758Z,67.30
2023-04-04T20:42:37.887Z,67.96
2023-04-04T20:47:51.630Z,68.91
2023-04-04T20:53:02.055Z,69.61
2023-04-04T20:58:23.319Z,70.09
2023-04-04T21:03:25.171Z,70.23
2023-04-04T21:08:29.459Z,70.46
2023-04-04T21:13:41.710Z,70.39
2023-04-04T21:18:43.953Z,70.81
2023-04-04T21:23:47.074Z,71.14
2023-04-04T21:28:49.859Z,71.55
2023-04-04T21:33:56.149Z,71.73
2023-04-04T21:39:00.734Z,72.10
2023-04-04T21:44:10.270Z,72.50
2023-04-04T21:49:12.783Z,73.00
2023-04-04T21:54:15.443Z,73.45
2023-04-04T21:59:18.705Z,73.80
2023-04-04T22:04:20.390Z,74.13
2023-04-04T22:09:25.877Z,74.34
2023-04-04T22:14:30.501Z,74.02
2023-04-04T22:19:43.172Z,73.60
2023-04-04T22:24:44.918Z,73.71
2023-04-04T22:29:46.706Z,74.03
2023-04-04T22:34:48.938Z,74.83
2023-04-04T22:39:50.816Z,74.95
2023-04-04T22:44:52.573Z,75.29
2023-04-04T22:49:56.312Z,75.59
2023-04-04T22:54:59.648Z,75.53
2023-04-04T23:00:01.543Z,75.46
2023-04-04T23:05:04.025Z,75.37
2023-04-04T23:10:12.790Z,76.05
2023-04-04T23:15:19.270Z,75.75
2023-04-04T23:20:21.117Z,75.45
2023-04-04T23:25:28.429Z,75.46
2023-04-04T23:30:30.271Z,75.90
2023-04-04T23:35:37.775Z,76.33
2023-04-04T23:40:41.021Z,76.94
2023-04-04T23:45:43.525Z,76.85
2023-04-04T23:50:47.042Z,76.63
2023-04-04T23:55:49.178Z,76.90
